createdAt,value
2018-04-28T00:01:40.292Z,28.74
2018-04-28T00:04:12.056Z,28.36
2018-04-28T00:06:44.266Z,28.49
2018-04-28T00:09:16.485Z,28.51
2018-04-28T00:11:48.112Z,28.20
2018-04-28T00:14:21.055Z,28.34
2018-04-28T00:16:53.546Z,28.46
2018-04-28T00:19:28.462Z,28.26
2018-04-28T00:22:01.022Z,28.29
2018-04-28T00:24:36.497Z,28.02
2018-04-28T00:30:53.312Z,28.15
2018-04-28T00:33:34.825Z,27.96
2018-04-28T00:37:07.582Z,27.96
2018-04-28T00:39:46.466Z,27.95
2018-04-28T00:42:18.723Z,27.77
2018-04-28T00:44:52.126Z,27.76
2018-04-28T00:47:25.570Z,28.00
2018-04-28T00:53:12.497Z,27.89
2018-04-28T00:55:42.884Z,27.97
2018-04-28T00:58:18.514Z,27.97
2018-04-28T01:00:55.566Z,27.91
2018-04-28T01:03:31.364Z,27.95
2018-04-28T01:06:02.563Z,27.97
2018-04-28T01:08:34.441Z,27.98
2018-04-28T01:11:06.505Z,28.08
2018-04-28T01:13:47.463Z,28.21
2018-04-28T01:16:18.969Z,28.17
2018-04-28T01:18:57.485Z,28.25
2018-04-28T01:21:47.827Z,28.31
2018-04-28T01:24:36.516Z,28.27
2018-04-28T01:27:15.932Z,28.28
2018-04-28T01:33:07.793Z,28.41
2018-04-28T01:39:04.199Z,28.44
2018-04-28T01:41:43.707Z,28.59
2018-04-28T01:45:55.604Z,28.76
2018-04-28T01:48:31.355Z,28.76
2018-04-28T01:51:08.570Z,28.87
2018-04-28T01:59:04.122Z,28.95
2018-04-28T02:01:41.584Z,29.05
2018-04-28T02:04:24.669Z,29.13
2018-04-28T02:07:06.978Z,29.20
2018-04-28T02:09:44.327Z,29.19
2018-04-28T02:12:25.588Z,29.32
2018-04-28T02:15:15.316Z,29.32
2018-04-28T02:17:53.952Z,29.35
2018-04-28T02:20:28.460Z,29.42
2018-04-28T02:23:11.522Z,29.54
2018-04-28T02:26:02.309Z,29.67
2018-04-28T02:28:49.596Z,29.66
2018-04-28T02:34:34.379Z,30.04
2018-04-28T02:37:13.145Z,30.07
2018-04-28T02:39:46.600Z,30.04
2018-04-28T02:42:37.787Z,30.18
2018-04-28T02:45:13.268Z,30.20
2018-04-28T02:47:46.629Z,30.30
2018-04-28T02:50:26.352Z,30.42
2018-04-28T02:53:04.014Z,30.38
2018-04-28T02:55:46.395Z,30.51
2018-04-28T02:58:21.150Z,30.62
2018-04-28T03:04:02.475Z,30.73
2018-04-28T03:06:57.612Z,30.76
2018-04-28T03:09:33.019Z,30.74
2018-04-28T03:12:08.714Z,30.88
2018-04-28T03:15:02.600Z,31.04
2018-04-28T03:17:42.234Z,31.17
2018-04-28T03:20:24.278Z,31.07
2018-04-28T03:23:01.630Z,31.06
2018-04-28T03:28:44.524Z,31.18
2018-04-28T03:31:30.556Z,31.22
2018-04-28T03:38:44.371Z,31.46
2018-04-28T03:43:07.091Z,31.70
2018-04-28T03:45:40.469Z,31.64
2018-04-28T03:48:19.625Z,31.69
2018-04-28T03:50:56.306Z,31.80
2018-04-28T03:53:29.509Z,31.81
2018-04-28T03:56:05.071Z,31.78
2018-04-28T04:01:49.000Z,31.96
2018-04-28T04:04:27.038Z,31.95
2018-04-28T04:07:18.749Z,31.97
2018-04-28T04:12:20.802Z,32.15
2018-04-28T04:15:16.050Z,32.20
2018-04-28T04:17:59.120Z,32.24
2018-04-28T04:20:35.047Z,32.30
2018-04-28T04:23:20.542Z,32.31
2018-04-28T04:26:01.605Z,32.43
2018-04-28T04:31:57.501Z,32.46
2018-04-28T04:37:57.631Z,32.60
2018-04-28T04:40:58.546Z,32.71
2018-04-28T04:46:49.726Z,32.86
2018-04-28T04:53:00.681Z,32.98
2018-04-28T04:58:46.778Z,33.17
2018-04-28T05:01:46.042Z,33.31
2018-04-28T05:07:43.961Z,33.38
2018-04-28T05:10:41.671Z,33.51
2018-04-28T05:16:44.327Z,33.64
2018-04-28T05:19:33.503Z,33.77
2018-04-28T05:28:42.711Z,33.98
2018-04-28T05:34:33.532Z,34.20
2018-04-28T05:37:17.902Z,34.21
2018-04-28T05:43:24.519Z,34.42
2018-04-28T05:46:08.628Z,34.59
2018-04-28T05:48:52.433Z,34.53
2018-04-28T05:51:36.849Z,34.68
2018-04-28T05:57:55.840Z,34.67
2018-04-28T06:03:52.593Z,34.86
2018-04-28T06:06:32.077Z,35.09
2018-04-28T06:09:25.423Z,35.09
2018-04-28T06:18:33.886Z,35.22
2018-04-28T06:21:06.904Z,35.20
2018-04-28T06:23:40.363Z,35.29
2018-04-28T06:26:13.974Z,35.29
2018-04-28T06:28:47.207Z,35.28
2018-04-28T06:31:20.636Z,35.48
2018-04-28T06:33:54.172Z,35.55
2018-04-28T06:36:27.180Z,35.49
2018-04-28T06:39:00.387Z,35.56
2018-04-28T06:41:33.521Z,35.63
2018-04-28T06:44:06.750Z,35.80
2018-04-28T06:46:40.503Z,35.73
2018-04-28T06:49:13.653Z,35.86
2018-04-28T06:51:46.591Z,35.96
2018-04-28T06:54:19.941Z,36.13
2018-04-28T06:56:52.616Z,36.25
2018-04-28T06:59:25.440Z,36.32
2018-04-28T07:01:58.237Z,36.26
2018-04-28T07:04:31.319Z,36.38
2018-04-28T07:07:04.397Z,36.33
2018-04-28T07:09:37.464Z,36.27
2018-04-28T07:12:10.579Z,36.53
2018-04-28T07:14:43.673Z,36.49
2018-04-28T07:17:16.317Z,36.39
2018-04-28T07:19:49.460Z,36.54
2018-04-28T07:23:38.239Z,36.67
2018-04-28T07:26:10.931Z,36.55
2018-04-28T07:28:43.977Z,36.48
2018-04-28T07:31:17.378Z,36.55
2018-04-28T07:33:50.536Z,36.66
2018-04-28T07:36:23.530Z,36.90
2018-04-28T07:38:56.547Z,36.90
2018-04-28T07:41:29.422Z,36.75
2018-04-28T07:44:01.848Z,36.79
2018-04-28T07:46:34.923Z,37.14
2018-04-28T07:49:07.986Z,37.20
2018-04-28T07:51:40.927Z,37.31
2018-04-28T07:54:13.666Z,37.39
2018-04-28T07:56:46.529Z,37.55
2018-04-28T07:59:20.519Z,37.50
2018-04-28T08:01:53.559Z,37.54
2018-04-28T08:04:27.417Z,37.70
2018-04-28T08:07:00.372Z,37.68
2018-04-28T08:09:33.721Z,37.70
2018-04-28T08:12:07.161Z,37.50
2018-04-28T08:14:40.419Z,37.55
2018-04-28T08:19:19.117Z,37.78
2018-04-28T08:21:52.537Z,37.84
2018-04-28T08:24:25.476Z,37.91
2018-04-28T08:26:58.534Z,38.03
2018-04-28T08:29:31.459Z,38.03
2018-04-28T08:32:04.508Z,38.08
2018-04-28T08:34:37.110Z,38.01
2018-04-28T08:37:10.532Z,38.00
2018-04-28T08:39:43.707Z,37.81
2018-04-28T08:42:16.604Z,37.92
2018-04-28T08:44:49.554Z,38.09
2018-04-28T08:47:22.748Z,38.32
2018-04-28T08:49:55.166Z,38.28
2018-04-28T08:52:27.877Z,38.30
2018-04-28T08:55:01.448Z,38.15
2018-04-28T08:57:34.413Z,38.31
2018-04-28T09:00:17.750Z,38.41
2018-04-28T09:02:50.345Z,38.49
2018-04-28T09:05:23.253Z,38.44
2018-04-28T09:07:56.321Z,38.24
2018-04-28T09:10:29.713Z,38.51
2018-04-28T09:13:02.706Z,38.59
2018-04-28T09:15:36.413Z,38.61
2018-04-28T09:18:09.068Z,38.66
2018-04-28T09:20:41.833Z,38.29
2018-04-28T09:23:16.698Z,38.60
2018-04-28T09:25:49.880Z,38.25
2018-04-28T09:28:23.417Z,38.62
2018-04-28T09:30:56.330Z,38.40
2018-04-28T09:33:29.402Z,38.53
2018-04-28T09:36:02.554Z,38.46
2018-04-28T09:38:35.509Z,38.65
2018-04-28T09:41:07.099Z,38.44
2018-04-28T09:43:40.444Z,38.62
2018-04-28T09:46:13.454Z,38.82
2018-04-28T09:48:45.922Z,38.60
2018-04-28T09:51:18.935Z,38.83
2018-04-28T09:53:51.537Z,38.51
2018-04-28T09:56:24.815Z,38.50
2018-04-28T09:58:58.692Z,38.78
2018-04-28T10:01:46.294Z,38.52
2018-04-28T10:04:24.401Z,38.35
2018-04-28T10:06:57.225Z,38.47
2018-04-28T10:09:29.977Z,38.73
2018-04-28T10:12:03.182Z,38.67
2018-04-28T10:14:36.515Z,38.59
2018-04-28T10:17:09.392Z,38.76
2018-04-28T10:19:43.578Z,39.13
2018-04-28T10:22:17.886Z,39.27
2018-04-28T10:24:51.536Z,38.64
2018-04-28T10:27:24.517Z,38.63
2018-04-28T10:29:57.721Z,38.72
2018-04-28T10:32:30.906Z,39.13
2018-04-28T10:35:03.899Z,39.43
2018-04-28T10:37:36.948Z,38.99
2018-04-28T10:40:10.370Z,39.35
2018-04-28T10:42:43.231Z,38.95
2018-04-28T10:45:16.389Z,38.97
2018-04-28T10:47:50.057Z,39.13
2018-04-28T10:50:23.061Z,39.12
2018-04-28T10:52:55.652Z,39.14
2018-04-28T10:57:27.244Z,39.25
2018-04-28T10:59:59.413Z,39.10
2018-04-28T11:02:32.401Z,39.24
2018-04-28T11:05:05.381Z,39.51
2018-04-28T11:07:38.248Z,39.39
2018-04-28T11:10:11.211Z,39.34
2018-04-28T11:12:44.100Z,39.51
2018-04-28T11:15:16.915Z,39.72
2018-04-28T11:17:49.941Z,39.83
2018-04-28T11:20:23.192Z,39.41
2018-04-28T11:22:55.668Z,39.44
2018-04-28T11:25:28.426Z,39.52
2018-04-28T11:28:00.917Z,39.58
2018-04-28T11:30:34.055Z,39.62
2018-04-28T11:33:07.579Z,39.65
2018-04-28T11:35:40.393Z,39.71
2018-04-28T11:38:13.421Z,39.73
2018-04-28T11:40:46.385Z,40.06
2018-04-28T11:43:19.406Z,40.01
2018-04-28T11:45:52.524Z,39.77
2018-04-28T11:48:25.430Z,39.67
2018-04-28T11:50:58.379Z,39.73
2018-04-28T11:53:31.357Z,39.84
2018-04-28T11:56:04.450Z,39.95
2018-04-28T11:58:36.924Z,39.87
2018-04-28T12:01:10.641Z,39.95
2018-04-28T12:03:44.291Z,40.10
2018-04-28T12:06:17.506Z,40.11
2018-04-28T12:08:50.661Z,40.17
2018-04-28T12:11:24.308Z,40.12
2018-04-28T12:13:57.293Z,40.27
2018-04-28T12:16:30.983Z,40.18
2018-04-28T12:19:04.095Z,40.16
2018-04-28T12:21:37.319Z,40.24
2018-04-28T12:24:11.069Z,40.33
2018-04-28T12:26:43.457Z,40.39
2018-04-28T12:29:16.029Z,40.44
2018-04-28T12:31:49.389Z,40.45
2018-04-28T12:34:22.579Z,40.37
2018-04-28T12:36:55.633Z,40.50
2018-04-28T12:39:28.749Z,40.68
2018-04-28T12:42:01.397Z,40.64
2018-04-28T12:44:34.397Z,40.80
2018-04-28T12:47:07.429Z,40.83
2018-04-28T12:49:39.928Z,40.90
2018-04-28T12:52:13.091Z,40.92
2018-04-28T12:54:46.074Z,40.91
2018-04-28T12:57:19.097Z,41.18
2018-04-28T12:59:52.296Z,41.22
2018-04-28T13:02:24.624Z,41.00
2018-04-28T13:04:58.798Z,41.16
2018-04-28T13:07:31.431Z,41.34
2018-04-28T13:10:04.022Z,40.95
2018-04-28T13:12:37.455Z,41.33
2018-04-28T13:15:10.053Z,41.21
2018-04-28T13:17:43.746Z,41.37
2018-04-28T13:20:16.781Z,41.48
2018-04-28T13:23:28.516Z,41.45
2018-04-28T13:26:01.102Z,41.71
2018-04-28T13:28:34.457Z,41.65
2018-04-28T13:31:07.806Z,41.35
2018-04-28T13:33:40.558Z,41.59
2018-04-28T13:36:13.659Z,41.45
2018-04-28T13:38:46.599Z,41.54
2018-04-28T13:41:19.606Z,41.50
2018-04-28T13:43:52.544Z,41.74
2018-04-28T13:46:25.414Z,41.71
2018-04-28T13:48:57.930Z,41.69
2018-04-28T13:51:31.409Z,41.63
2018-04-28T13:54:04.514Z,41.89
2018-04-28T13:56:38.545Z,41.92
2018-04-28T13:59:11.658Z,41.97
2018-04-28T14:01:44.071Z,42.10
2018-04-28T14:04:17.503Z,42.17
2018-04-28T14:06:51.511Z,42.19
2018-04-28T14:09:25.399Z,42.33
2018-04-28T14:11:58.513Z,42.43
2018-04-28T14:14:31.544Z,42.47
2018-04-28T14:17:04.242Z,42.49
2018-04-28T14:19:37.393Z,42.58
2018-04-28T14:22:10.503Z,42.68
2018-04-28T14:24:43.641Z,42.91
2018-04-28T14:27:16.838Z,42.83
2018-04-28T14:29:49.419Z,42.95
2018-04-28T14:32:22.408Z,43.00
2018-04-28T14:34:55.031Z,42.92
2018-04-28T14:37:28.584Z,42.83
2018-04-28T14:40:01.442Z,42.93
2018-04-28T14:42:41.917Z,43.00
2018-04-28T14:45:15.517Z,43.07
2018-04-28T14:47:48.381Z,43.09
2018-04-28T14:50:21.204Z,43.09
2018-04-28T14:52:54.009Z,43.13
2018-04-28T14:55:27.543Z,43.11
2018-04-28T14:58:00.305Z,43.21
2018-04-28T15:00:33.398Z,43.32
2018-04-28T15:03:06.430Z,43.40
2018-04-28T15:05:39.828Z,43.46
2018-04-28T15:08:13.026Z,43.25
2018-04-28T15:10:46.212Z,43.32
2018-04-28T15:13:19.460Z,43.52
2018-04-28T15:15:52.560Z,43.52
2018-04-28T15:18:25.663Z,43.57
2018-04-28T15:20:59.395Z,43.61
2018-04-28T15:23:32.083Z,43.61
2018-04-28T15:26:05.459Z,43.60
2018-04-28T15:28:39.316Z,43.55
2018-04-28T15:32:53.314Z,43.46
2018-04-28T15:35:25.964Z,43.40
2018-04-28T15:37:59.238Z,43.38
2018-04-28T15:40:32.518Z,43.34
2018-04-28T15:43:05.879Z,43.39
2018-04-28T15:45:39.207Z,43.56
2018-04-28T15:48:12.387Z,43.57
2018-04-28T15:50:45.790Z,43.33
2018-04-28T15:53:19.672Z,43.46
2018-04-28T15:55:52.664Z,43.43
2018-04-28T15:58:26.153Z,43.62
2018-04-28T16:00:58.924Z,43.59
2018-04-28T16:03:32.071Z,43.50
2018-04-28T16:06:05.519Z,43.58
2018-04-28T16:08:39.643Z,43.44
2018-04-28T16:11:12.625Z,43.54
2018-04-28T16:13:45.661Z,43.65
2018-04-28T16:16:18.843Z,43.73
2018-04-28T16:18:51.402Z,43.71
2018-04-28T16:21:24.578Z,43.69
2018-04-28T16:23:57.429Z,43.51
2018-04-28T16:26:30.602Z,43.64
2018-04-28T16:29:04.805Z,43.61
2018-04-28T16:31:37.439Z,43.62
2018-04-28T16:34:13.066Z,43.44
2018-04-28T16:36:46.210Z,43.58
2018-04-28T16:39:19.650Z,43.67
2018-04-28T16:41:52.586Z,43.75
2018-04-28T16:44:25.990Z,43.68
2018-04-28T16:46:58.584Z,43.72
2018-04-28T16:49:31.407Z,43.74
2018-04-28T16:52:04.720Z,43.72
2018-04-28T16:54:37.445Z,43.73
2018-04-28T16:57:10.398Z,43.65
2018-04-28T16:59:43.424Z,43.59
2018-04-28T17:02:18.403Z,43.29
2018-04-28T17:04:51.228Z,43.44
2018-04-28T17:07:23.409Z,43.41
2018-04-28T17:09:56.323Z,43.52
2018-04-28T17:12:29.406Z,43.28
2018-04-28T17:15:02.072Z,43.31
2018-04-28T17:17:45.535Z,43.09
2018-04-28T17:20:18.411Z,43.02
2018-04-28T17:22:50.658Z,43.13
2018-04-28T17:25:24.115Z,43.02
2018-04-28T17:27:57.507Z,42.84
2018-04-28T17:30:30.097Z,42.83
2018-04-28T17:33:03.237Z,42.64
2018-04-28T17:35:36.494Z,42.40
2018-04-28T17:38:09.229Z,42.45
2018-04-28T17:40:41.411Z,42.33
2018-04-28T17:43:14.326Z,42.30
2018-04-28T17:45:46.985Z,42.36
2018-04-28T17:48:20.523Z,42.35
2018-04-28T17:50:53.427Z,42.14
2018-04-28T17:53:26.321Z,42.13
2018-04-28T17:55:59.430Z,41.92
2018-04-28T17:58:32.537Z,41.83
2018-04-28T18:01:05.525Z,41.90
2018-04-28T18:03:38.326Z,41.57
2018-04-28T18:06:11.487Z,41.62
2018-04-28T18:08:45.249Z,41.58
2018-04-28T18:11:17.434Z,41.57
2018-04-28T18:13:50.609Z,41.54
2018-04-28T18:16:25.235Z,41.56
2018-04-28T18:18:57.970Z,41.40
2018-04-28T18:21:31.090Z,41.48
2018-04-28T18:24:03.790Z,41.28
2018-04-28T18:26:37.186Z,41.19
2018-04-28T18:29:10.068Z,41.09
2018-04-28T18:31:43.177Z,41.24
2018-04-28T18:34:16.234Z,41.23
2018-04-28T18:36:49.162Z,41.23
2018-04-28T18:39:22.336Z,41.28
2018-04-28T18:41:54.822Z,41.34
2018-04-28T18:44:28.654Z,41.33
2018-04-28T18:49:01.164Z,41.52
2018-04-28T18:51:33.965Z,41.40
2018-04-28T18:54:07.080Z,41.38
2018-04-28T18:56:40.529Z,41.38
2018-04-28T18:59:13.877Z,41.38
2018-04-28T19:01:46.342Z,41.42
2018-04-28T19:04:19.443Z,41.43
2018-04-28T19:06:52.332Z,41.50
2018-04-28T19:09:25.474Z,41.59
2018-04-28T19:11:58.276Z,41.86
2018-04-28T19:14:31.640Z,41.95
2018-04-28T19:17:05.600Z,43.18
2018-04-28T19:19:39.606Z,43.83
2018-04-28T19:22:12.909Z,43.57
2018-04-28T19:24:45.555Z,43.48
2018-04-28T19:27:18.501Z,43.20
2018-04-28T19:29:51.549Z,43.12
2018-04-28T19:32:24.431Z,42.91
2018-04-28T19:34:57.255Z,42.97
2018-04-28T19:37:29.334Z,43.01
2018-04-28T19:40:01.887Z,42.96
2018-04-28T19:42:34.436Z,42.91
2018-04-28T19:45:07.491Z,42.87
2018-04-28T19:48:49.147Z,42.73
2018-04-28T19:51:21.570Z,42.26
2018-04-28T19:53:54.473Z,42.36
2018-04-28T19:56:27.593Z,42.34
2018-04-28T19:59:00.510Z,42.38
2018-04-28T20:01:33.564Z,42.30
2018-04-28T20:04:06.562Z,41.99
2018-04-28T20:06:40.739Z,41.76
2018-04-28T20:09:56.607Z,42.07
2018-04-28T20:12:28.731Z,42.02
2018-04-28T20:15:00.974Z,41.96
2018-04-28T20:17:33.434Z,41.58
2018-04-28T20:20:06.356Z,41.21
2018-04-28T20:22:49.864Z,41.41
2018-04-28T20:25:25.997Z,41.18
2018-04-28T20:27:58.355Z,41.19
2018-04-28T20:30:31.503Z,40.59
2018-04-28T20:33:05.150Z,40.67
2018-04-28T20:35:37.714Z,40.57
2018-04-28T20:38:10.984Z,40.63
2018-04-28T20:40:44.559Z,40.52
2018-04-28T20:43:17.437Z,40.44
2018-04-28T20:45:50.124Z,40.44
2018-04-28T20:48:23.287Z,40.42
2018-04-28T20:50:56.349Z,40.38
2018-04-28T20:53:29.489Z,40.35
2018-04-28T20:56:02.632Z,40.31
2018-04-28T20:58:36.479Z,40.20
2018-04-28T21:01:09.822Z,40.20
2018-04-28T21:03:42.464Z,40.21
2018-04-28T21:06:16.057Z,40.05
2018-04-28T21:08:49.056Z,40.01
2018-04-28T21:11:21.906Z,39.84
2018-04-28T21:13:55.097Z,39.71
2018-04-28T21:16:29.828Z,39.68
2018-04-28T21:19:03.812Z,39.54
2018-04-28T21:21:37.493Z,39.32
2018-04-28T21:24:10.784Z,39.30
2018-04-28T21:26:43.473Z,39.14
2018-04-28T21:29:16.454Z,39.07
2018-04-28T21:31:49.615Z,38.82
2018-04-28T21:34:22.459Z,38.76
2018-04-28T21:36:55.206Z,38.52
2018-04-28T21:39:28.011Z,38.41
2018-04-28T21:42:01.625Z,38.02
2018-04-28T21:44:35.253Z,37.50
2018-04-28T21:47:07.491Z,37.44
2018-04-28T21:49:40.653Z,37.02
2018-04-28T21:52:13.516Z,37.06
2018-04-28T21:54:46.813Z,36.76
2018-04-28T21:57:20.366Z,36.54
2018-04-28T21:59:54.851Z,35.93
2018-04-28T22:02:29.377Z,36.00
2018-04-28T22:05:01.646Z,35.85
2018-04-28T22:07:34.314Z,35.52
2018-04-28T22:10:07.506Z,35.42
2018-04-28T22:12:40.556Z,35.31
2018-04-28T22:15:13.712Z,35.18
2018-04-28T22:17:47.674Z,35.26
2018-04-28T22:20:20.628Z,35.03
2018-04-28T22:22:53.819Z,34.89
2018-04-28T22:25:27.461Z,34.63
2018-04-28T22:28:00.465Z,34.69
2018-04-28T22:30:34.104Z,34.69
2018-04-28T22:33:07.238Z,34.47
2018-04-28T22:35:39.959Z,34.60
2018-04-28T22:38:15.532Z,34.44
2018-04-28T22:40:48.474Z,34.38
2018-04-28T22:43:21.482Z,34.33
2018-04-28T22:45:55.012Z,34.37
2018-04-28T22:48:28.125Z,34.61
2018-04-28T22:51:01.478Z,34.49
2018-04-28T22:53:34.589Z,34.49
2018-04-28T22:56:08.379Z,34.43
2018-04-28T22:58:41.594Z,34.21
2018-04-28T23:01:14.777Z,34.14
2018-04-28T23:03:47.776Z,34.02
2018-04-28T23:06:21.780Z,33.69
2018-04-28T23:09:03.429Z,33.79
2018-04-28T23:13:09.738Z,33.44
2018-04-28T23:15:43.018Z,33.46
2018-04-28T23:18:16.382Z,33.34
2018-04-28T23:20:49.477Z,33.34
2018-04-28T23:23:22.681Z,33.17
2018-04-28T23:25:55.736Z,32.82
2018-04-28T23:28:29.692Z,32.66
2018-04-28T23:31:02.387Z,32.42
2018-04-28T23:33:34.513Z,32.41
2018-04-28T23:36:07.710Z,32.27
2018-04-28T23:38:40.637Z,32.10
2018-04-28T23:41:13.499Z,31.89
2018-04-28T23:43:46.476Z,31.54
2018-04-28T23:46:20.541Z,31.38
2018-04-28T23:48:53.496Z,31.25
2018-04-28T23:51:26.608Z,31.17
2018-04-28T23:53:59.299Z,31.09
2018-04-28T23:56:32.786Z,30.69
2018-04-28T23:59:05.535Z,30.61
